Terminal Aerodrome Forecast
Issued by NWS Upton, NY

Home | Current Version | Previous Version | Text Only | Print | Product List | Glossary On
Versions: 1 2 3 4 5 6 7 8 9 10 11 12 13 14 15 16 17 18 19 20 21 22 23 24 25 26 27
364
FTUS41 KOKX 041434 AAA
TAFBDR
TAF AMD
KBDR 041434Z 0415/0512 32009KT P6SM FEW040 SCT250
     FM042200 34007KT P6SM BKN250
     FM050000 VRB03KT P6SM BKN120 BKN250
     FM050700 VRB03KT 6SM -SN SCT025 OVC080
     FM051000 08005KT 4SM -RASN SCT010 BKN020 OVC040=

USA.gov is the U.S. government's official web portal to all federal, state and local government web resources and services.